createdAt,value
2022-10-05T00:01:48.527Z,14.92
2022-10-05T00:04:18.565Z,14.91
2022-10-05T00:06:48.898Z,14.74
2022-10-05T00:09:20.615Z,14.87
2022-10-05T00:11:49.089Z,14.83
2022-10-05T00:14:20.798Z,14.81
2022-10-05T00:16:50.234Z,14.82
2022-10-05T00:19:24.403Z,14.77
2022-10-05T00:21:51.904Z,14.78
2022-10-05T00:24:21.332Z,14.87
2022-10-05T00:26:54.119Z,14.73
2022-10-05T00:29:24.952Z,14.96
2022-10-05T00:31:53.924Z,14.90
2022-10-05T00:34:21.481Z,14.80
2022-10-05T00:36:49.299Z,14.83
2022-10-05T00:39:18.954Z,14.92
2022-10-05T00:41:59.698Z,14.88
2022-10-05T00:44:40.090Z,14.90
2022-10-05T00:47:33.537Z,14.82
2022-10-05T00:50:37.896Z,14.79
2022-10-05T00:53:12.564Z,14.76
2022-10-05T00:55:53.409Z,14.77
2022-10-05T00:58:31.831Z,14.83
2022-10-05T01:01:09.322Z,14.86
2022-10-05T01:03:50.584Z,14.94
2022-10-05T01:06:25.143Z,15.05
2022-10-05T01:09:02.702Z,15.09
2022-10-05T01:11:39.941Z,14.99
2022-10-05T01:14:17.447Z,15.03
2022-10-05T01:16:52.962Z,14.84
2022-10-05T01:19:40.482Z,14.90
2022-10-05T01:22:16.957Z,15.20
2022-10-05T01:24:58.382Z,15.13
2022-10-05T01:27:43.183Z,15.00
2022-10-05T01:30:14.024Z,14.92
2022-10-05T01:32:49.561Z,14.82
2022-10-05T01:35:27.700Z,14.79
2022-10-05T01:38:05.410Z,14.86
2022-10-05T01:40:40.918Z,14.92
2022-10-05T01:43:20.752Z,14.86
2022-10-05T01:45:59.408Z,14.88
2022-10-05T01:48:37.502Z,14.82
2022-10-05T01:51:13.566Z,14.70
2022-10-05T01:53:53.273Z,14.76
2022-10-05T01:56:30.483Z,14.65
2022-10-05T01:59:15.965Z,14.61
2022-10-05T02:01:47.633Z,14.62
2022-10-05T02:04:37.248Z,14.77
2022-10-05T02:07:13.795Z,14.79
2022-10-05T02:09:47.030Z,14.76
2022-10-05T02:12:19.761Z,14.87
2022-10-05T02:14:51.731Z,14.75
2022-10-05T02:17:24.875Z,14.69
2022-10-05T02:19:58.068Z,14.70
2022-10-05T02:22:31.781Z,14.65
2022-10-05T02:25:02.253Z,14.63
2022-10-05T02:27:33.446Z,14.57
2022-10-05T02:30:05.023Z,14.55
2022-10-05T02:32:38.585Z,14.53
2022-10-05T02:35:15.369Z,14.61
2022-10-05T02:37:54.303Z,14.67
2022-10-05T02:40:33.099Z,14.60
2022-10-05T02:43:09.060Z,14.68
2022-10-05T02:45:46.443Z,14.77
2022-10-05T02:48:20.653Z,14.70
2022-10-05T02:50:54.395Z,14.68
2022-10-05T02:53:28.293Z,14.70
2022-10-05T02:56:08.740Z,14.64
2022-10-05T02:58:45.535Z,14.76
2022-10-05T03:01:22.394Z,14.75
2022-10-05T03:03:58.909Z,14.77
2022-10-05T03:06:31.359Z,14.82
2022-10-05T03:09:03.110Z,14.63
2022-10-05T03:11:40.466Z,14.65
2022-10-05T03:14:15.117Z,14.64
2022-10-05T03:16:55.854Z,14.65
2022-10-05T03:19:39.879Z,14.68
2022-10-05T03:22:19.156Z,14.67
2022-10-05T03:25:02.983Z,14.71
2022-10-05T03:27:39.244Z,14.67
2022-10-05T03:30:13.868Z,14.76
2022-10-05T03:32:54.099Z,14.74
2022-10-05T03:35:28.774Z,14.73
2022-10-05T03:38:15.776Z,14.61
2022-10-05T03:40:50.890Z,14.48
2022-10-05T03:43:35.969Z,14.47
2022-10-05T03:46:09.588Z,14.58
2022-10-05T03:48:44.359Z,14.60
2022-10-05T03:51:17.070Z,14.54
2022-10-05T03:53:48.232Z,14.55
2022-10-05T03:56:20.362Z,14.54
2022-10-05T03:58:57.023Z,14.57
2022-10-05T04:01:33.144Z,14.55
2022-10-05T04:04:05.266Z,14.51
2022-10-05T04:06:36.736Z,14.51
2022-10-05T04:09:09.103Z,14.62
2022-10-05T04:11:41.192Z,14.61
2022-10-05T04:14:15.250Z,14.59
2022-10-05T04:16:48.334Z,14.49
2022-10-05T04:19:23.129Z,14.58
2022-10-05T04:21:54.140Z,14.60
2022-10-05T04:24:25.311Z,14.45
2022-10-05T04:26:58.541Z,14.31
2022-10-05T04:29:34.976Z,14.32
2022-10-05T04:32:18.304Z,14.52
2022-10-05T04:34:58.237Z,14.31
2022-10-05T04:37:44.434Z,14.25
2022-10-05T04:40:35.482Z,14.13
2022-10-05T04:43:10.571Z,14.11
2022-10-05T04:45:52.618Z,14.06
2022-10-05T04:48:36.668Z,14.07
2022-10-05T04:51:18.267Z,14.08
2022-10-05T04:53:52.072Z,14.02
2022-10-05T04:56:23.266Z,14.05
2022-10-05T04:59:06.497Z,14.07
2022-10-05T05:01:52.912Z,14.13
2022-10-05T05:04:35.248Z,14.12
2022-10-05T05:07:17.762Z,14.12
2022-10-05T05:10:15.623Z,14.10
2022-10-05T05:12:53.886Z,14.23
2022-10-05T05:15:39.259Z,14.22
2022-10-05T05:18:31.511Z,14.12
2022-10-05T05:21:05.853Z,14.10
2022-10-05T05:23:41.912Z,14.08
2022-10-05T05:26:15.928Z,14.12
2022-10-05T05:28:50.979Z,14.20
2022-10-05T05:31:28.757Z,14.17
2022-10-05T05:34:04.358Z,14.18
2022-10-05T05:36:51.982Z,14.46
2022-10-05T05:39:27.134Z,14.18
2022-10-05T05:41:59.984Z,14.20
2022-10-05T05:44:31.174Z,14.21
2022-10-05T05:47:05.177Z,14.26
2022-10-05T05:49:50.541Z,14.33
2022-10-05T05:52:23.366Z,14.38
2022-10-05T05:54:56.985Z,14.39
2022-10-05T05:57:29.010Z,14.35
2022-10-05T06:00:05.465Z,14.40
2022-10-05T06:02:43.214Z,14.40
2022-10-05T06:05:31.147Z,14.32
2022-10-05T06:08:02.134Z,14.45
2022-10-05T06:10:38.790Z,14.57
2022-10-05T06:13:11.314Z,14.52
2022-10-05T06:15:42.814Z,14.46
2022-10-05T06:18:12.912Z,14.51
2022-10-05T06:20:44.363Z,14.52
2022-10-05T06:23:17.704Z,14.56
2022-10-05T06:26:07.016Z,14.69
2022-10-05T06:28:37.738Z,14.58
2022-10-05T06:31:20.770Z,14.58
2022-10-05T06:33:50.978Z,14.70
2022-10-05T06:36:41.514Z,14.77
2022-10-05T06:39:29.884Z,14.77
2022-10-05T06:42:25.561Z,14.83
2022-10-05T06:45:01.460Z,14.86
2022-10-05T06:47:37.345Z,14.96
2022-10-05T06:50:15.179Z,14.88
2022-10-05T06:52:54.982Z,14.97
2022-10-05T06:55:30.572Z,15.05
2022-10-05T06:58:11.505Z,15.23
2022-10-05T07:00:44.799Z,15.15
2022-10-05T07:03:26.774Z,14.88
2022-10-05T07:06:03.015Z,14.91
2022-10-05T07:08:49.315Z,14.78
2022-10-05T07:11:28.400Z,14.83
2022-10-05T07:14:19.354Z,14.79
2022-10-05T07:17:05.709Z,15.09
2022-10-05T07:19:42.282Z,14.73
2022-10-05T07:22:22.673Z,14.88
2022-10-05T07:24:58.962Z,15.08
2022-10-05T07:27:33.170Z,15.11
2022-10-05T07:30:05.669Z,15.23
2022-10-05T07:32:40.838Z,15.13
2022-10-05T07:35:29.221Z,15.05
2022-10-05T07:38:00.769Z,15.02
2022-10-05T07:40:33.362Z,15.07
2022-10-05T07:43:09.925Z,15.21
2022-10-05T07:45:46.154Z,15.24
2022-10-05T07:48:20.021Z,15.16
2022-10-05T07:50:59.382Z,15.09
2022-10-05T07:53:32.260Z,14.95
2022-10-05T07:56:07.175Z,15.09
2022-10-05T07:58:41.446Z,15.08
2022-10-05T08:01:19.025Z,15.12
2022-10-05T08:03:53.586Z,15.19
2022-10-05T08:06:39.014Z,15.18
2022-10-05T08:09:11.878Z,15.06
2022-10-05T08:11:52.168Z,15.17
2022-10-05T08:14:29.494Z,15.23
2022-10-05T08:17:03.182Z,15.11
2022-10-05T08:19:36.274Z,15.03
2022-10-05T08:22:10.358Z,15.23
2022-10-05T08:24:44.305Z,15.14
2022-10-05T08:27:18.405Z,15.01
2022-10-05T08:29:53.731Z,14.99
2022-10-05T08:32:25.539Z,15.18
2022-10-05T08:35:00.167Z,15.13
2022-10-05T08:37:32.457Z,15.08
2022-10-05T08:40:34.752Z,15.16
2022-10-05T08:43:29.596Z,15.02
2022-10-05T08:46:32.621Z,15.23
2022-10-05T08:49:21.766Z,15.42
2022-10-05T08:52:21.824Z,15.39
2022-10-05T08:55:14.824Z,15.51
2022-10-05T08:57:58.678Z,15.45
2022-10-05T09:00:31.903Z,15.44
2022-10-05T09:03:18.817Z,15.51
2022-10-05T09:06:07.010Z,15.58
2022-10-05T09:08:56.438Z,15.60
2022-10-05T09:11:32.822Z,15.54
2022-10-05T09:14:36.278Z,15.55
2022-10-05T09:17:19.512Z,15.60
2022-10-05T09:20:09.698Z,15.62
2022-10-05T09:22:55.860Z,15.85
2022-10-05T09:25:28.990Z,15.95
2022-10-05T09:27:59.738Z,16.06
2022-10-05T09:30:43.241Z,16.01
2022-10-05T09:33:59.553Z,16.18
2022-10-05T09:37:26.453Z,15.87
2022-10-05T09:40:32.105Z,15.99
2022-10-05T09:43:35.805Z,15.87
2022-10-05T09:46:41.283Z,15.77
2022-10-05T09:49:36.659Z,15.82
2022-10-05T09:52:30.263Z,15.87
2022-10-05T09:55:25.465Z,15.95
2022-10-05T09:58:34.301Z,16.09
2022-10-05T10:01:34.328Z,15.97
2022-10-05T10:04:20.341Z,16.13
2022-10-05T10:07:28.200Z,16.13
2022-10-05T10:10:40.443Z,16.09
2022-10-05T10:13:33.891Z,16.21
2022-10-05T10:16:33.953Z,16.24
2022-10-05T10:19:31.636Z,16.27
2022-10-05T10:22:16.113Z,16.39
2022-10-05T10:25:25.214Z,16.21
2022-10-05T10:28:19.652Z,16.34
2022-10-05T10:31:18.275Z,16.36
2022-10-05T10:34:02.937Z,16.24
2022-10-05T10:36:52.685Z,16.19
2022-10-05T10:39:32.704Z,16.20
2022-10-05T10:42:26.298Z,16.36
2022-10-05T10:45:13.653Z,16.25
2022-10-05T10:47:51.437Z,16.43
2022-10-05T10:50:50.746Z,16.63
2022-10-05T10:53:36.408Z,16.68
2022-10-05T10:56:29.888Z,16.62
2022-10-05T10:59:35.181Z,16.64
2022-10-05T11:02:23.142Z,16.73
2022-10-05T11:05:09.106Z,16.75
2022-10-05T11:07:59.129Z,16.70
2022-10-05T11:11:07.904Z,17.07
2022-10-05T11:13:48.532Z,16.88
2022-10-05T11:16:48.684Z,16.91
2022-10-05T11:20:02.484Z,17.21
2022-10-05T11:22:53.418Z,17.22
2022-10-05T11:25:46.239Z,17.38
2022-10-05T11:28:58.647Z,17.31
2022-10-05T11:31:55.371Z,17.31
2022-10-05T11:34:53.021Z,17.35
2022-10-05T11:37:36.278Z,17.47
2022-10-05T11:40:33.137Z,17.48
2022-10-05T11:43:30.096Z,17.71
2022-10-05T11:46:09.174Z,17.94
2022-10-05T11:48:57.643Z,18.28
2022-10-05T11:51:35.063Z,17.80
2022-10-05T11:54:17.460Z,17.88
2022-10-05T11:56:54.606Z,17.94
2022-10-05T11:59:29.604Z,18.08
2022-10-05T12:02:07.025Z,17.88
2022-10-05T12:04:43.772Z,18.29
2022-10-05T12:07:22.589Z,18.26
2022-10-05T12:10:17.259Z,18.30
2022-10-05T12:13:05.581Z,18.53
2022-10-05T12:15:43.190Z,18.65
2022-10-05T12:18:15.201Z,18.50
2022-10-05T12:20:49.838Z,18.56
2022-10-05T12:23:23.123Z,18.88
2022-10-05T12:25:58.215Z,19.07
2022-10-05T12:28:36.180Z,18.75
2022-10-05T12:31:19.345Z,18.83
2022-10-05T12:33:57.301Z,18.62
2022-10-05T12:36:59.178Z,18.82
2022-10-05T12:39:30.691Z,19.15
2022-10-05T12:42:09.075Z,19.23
2022-10-05T12:44:52.798Z,19.39
2022-10-05T12:47:28.979Z,19.61
2022-10-05T12:50:11.522Z,19.76
2022-10-05T12:52:49.294Z,19.64
2022-10-05T12:55:26.167Z,19.92
2022-10-05T12:58:05.576Z,19.49
2022-10-05T13:00:39.434Z,19.39
2022-10-05T13:03:18.835Z,19.45
2022-10-05T13:05:53.389Z,19.54
2022-10-05T13:08:28.553Z,19.37
2022-10-05T13:11:05.751Z,19.60
2022-10-05T13:13:40.959Z,19.79
2022-10-05T13:16:24.663Z,19.83
2022-10-05T13:19:07.755Z,20.07
2022-10-05T13:21:52.111Z,20.24
2022-10-05T13:24:24.634Z,20.11
2022-10-05T13:26:58.640Z,19.70
2022-10-05T13:29:33.243Z,19.86
2022-10-05T13:32:08.288Z,20.01
2022-10-05T13:34:44.285Z,20.14
2022-10-05T13:37:23.101Z,19.94
2022-10-05T13:40:01.743Z,20.01
2022-10-05T13:42:36.884Z,20.12
2022-10-05T13:45:13.032Z,20.38
2022-10-05T13:47:56.360Z,20.78
2022-10-05T13:50:31.154Z,20.93
2022-10-05T13:53:08.553Z,20.88
2022-10-05T13:55:45.899Z,20.46
2022-10-05T13:58:19.851Z,20.40
2022-10-05T14:00:51.599Z,20.82
2022-10-05T14:03:30.866Z,20.58
2022-10-05T14:06:00.576Z,20.20
2022-10-05T14:08:33.090Z,20.12
2022-10-05T14:11:02.909Z,20.35
2022-10-05T14:13:35.492Z,20.44
2022-10-05T14:16:21.460Z,20.20
2022-10-05T14:18:57.477Z,20.46
2022-10-05T14:21:26.660Z,20.41
2022-10-05T14:23:57.090Z,20.51
2022-10-05T14:26:36.493Z,20.44
2022-10-05T14:29:17.994Z,20.04
2022-10-05T14:31:52.031Z,20.28
2022-10-05T14:34:34.496Z,20.50
2022-10-05T14:37:09.951Z,20.60
2022-10-05T14:39:42.444Z,20.60
2022-10-05T14:42:19.341Z,20.67
2022-10-05T14:44:59.200Z,20.18
2022-10-05T14:47:30.451Z,20.18
2022-10-05T14:50:17.625Z,20.09
2022-10-05T14:52:51.776Z,20.05
2022-10-05T14:55:41.454Z,19.98
2022-10-05T14:58:25.296Z,19.74
2022-10-05T15:01:02.174Z,19.56
2022-10-05T15:03:43.742Z,19.83
2022-10-05T15:06:19.041Z,19.81
2022-10-05T15:08:59.155Z,19.78
2022-10-05T15:11:37.667Z,19.55
2022-10-05T15:14:13.204Z,19.69
2022-10-05T15:16:42.052Z,19.69
2022-10-05T15:19:16.613Z,19.67
2022-10-05T15:22:00.974Z,19.55
2022-10-05T15:24:35.841Z,19.73
2022-10-05T15:27:06.908Z,19.59
2022-10-05T15:29:49.879Z,19.28
2022-10-05T15:32:31.603Z,19.56
2022-10-05T15:35:29.144Z,19.31
2022-10-05T15:38:05.441Z,19.15
2022-10-05T15:40:38.277Z,19.16
2022-10-05T15:43:14.746Z,19.10
2022-10-05T15:45:53.714Z,19.07
2022-10-05T15:48:28.994Z,19.28
2022-10-05T15:51:01.411Z,19.10
2022-10-05T15:53:39.539Z,18.99
2022-10-05T15:56:14.123Z,18.97
2022-10-05T15:58:51.874Z,19.09
2022-10-05T16:01:23.831Z,19.12
2022-10-05T16:03:55.291Z,18.83
2022-10-05T16:06:51.651Z,19.00
2022-10-05T16:09:35.081Z,19.02
2022-10-05T16:12:15.039Z,19.00
2022-10-05T16:14:56.423Z,18.88
2022-10-05T16:17:44.921Z,18.68
2022-10-05T16:20:29.744Z,18.73
2022-10-05T16:23:06.675Z,18.75
2022-10-05T16:25:45.231Z,18.53
2022-10-05T16:28:28.587Z,18.44
2022-10-05T16:31:02.941Z,18.51
2022-10-05T16:33:47.011Z,18.55
2022-10-05T16:36:22.658Z,18.50
2022-10-05T16:38:55.051Z,18.41
2022-10-05T16:41:33.632Z,18.33
2022-10-05T16:44:10.313Z,18.40
2022-10-05T16:46:45.480Z,18.53
2022-10-05T16:49:24.176Z,18.38
2022-10-05T16:51:58.981Z,18.64
2022-10-05T16:54:31.476Z,18.43
2022-10-05T16:57:07.414Z,18.45
2022-10-05T17:00:08.889Z,18.48
2022-10-05T17:02:58.820Z,18.58
2022-10-05T17:05:39.251Z,18.63
2022-10-05T17:08:31.634Z,18.71
2022-10-05T17:11:16.074Z,18.64
2022-10-05T17:13:58.452Z,18.75
2022-10-05T17:16:36.898Z,18.56
2022-10-05T17:19:21.618Z,18.61
2022-10-05T17:22:00.573Z,18.59
2022-10-05T17:24:45.898Z,18.66
2022-10-05T17:27:32.247Z,18.54
2022-10-05T17:30:22.016Z,18.78
2022-10-05T17:32:57.938Z,18.71
2022-10-05T17:35:43.715Z,18.91
2022-10-05T17:38:20.020Z,18.81
2022-10-05T17:41:19.629Z,18.72
2022-10-05T17:44:26.058Z,18.61
2022-10-05T17:46:57.770Z,18.49
2022-10-05T17:50:17.161Z,18.57
2022-10-05T17:53:03.381Z,18.39
2022-10-05T17:56:01.795Z,18.22
2022-10-05T17:59:04.102Z,18.19
2022-10-05T18:01:34.322Z,18.33
2022-10-05T18:04:33.525Z,18.41
2022-10-05T18:07:04.502Z,18.26
2022-10-05T18:09:37.409Z,18.04
2022-10-05T18:12:26.453Z,18.03
2022-10-05T18:15:01.353Z,17.96
2022-10-05T18:17:39.816Z,18.09
2022-10-05T18:20:28.494Z,18.12
2022-10-05T18:23:35.203Z,18.12
2022-10-05T18:26:09.022Z,18.45
2022-10-05T18:28:50.420Z,18.62
2022-10-05T18:31:27.383Z,18.34
2022-10-05T18:34:14.169Z,18.34
2022-10-05T18:36:59.590Z,18.49
2022-10-05T18:39:42.131Z,18.29
2022-10-05T18:42:22.948Z,18.40
2022-10-05T18:44:56.652Z,18.47
2022-10-05T18:47:31.932Z,18.25
2022-10-05T18:50:12.453Z,18.32
2022-10-05T18:52:57.956Z,18.10
2022-10-05T18:55:33.816Z,18.14
2022-10-05T18:58:14.427Z,18.03
2022-10-05T19:00:59.181Z,18.20
2022-10-05T19:03:32.754Z,18.26
2022-10-05T19:06:12.990Z,18.34
2022-10-05T19:08:50.352Z,18.18
2022-10-05T19:11:25.966Z,18.04
2022-10-05T19:14:01.723Z,17.99
2022-10-05T19:16:44.570Z,18.01
2022-10-05T19:19:36.822Z,17.96
2022-10-05T19:22:11.738Z,17.93
2022-10-05T19:25:04.323Z,17.79
2022-10-05T19:27:40.567Z,17.86
2022-10-05T19:30:20.537Z,17.79
2022-10-05T19:33:04.958Z,17.78
2022-10-05T19:35:36.644Z,17.67
2022-10-05T19:38:16.956Z,17.54
2022-10-05T19:40:56.732Z,17.64
2022-10-05T19:43:42.137Z,17.75
2022-10-05T19:46:17.773Z,17.79
2022-10-05T19:48:49.445Z,17.67
2022-10-05T19:51:27.589Z,17.76
2022-10-05T19:53:56.987Z,17.74
2022-10-05T19:56:28.653Z,17.60
2022-10-05T19:58:57.272Z,17.62
2022-10-05T20:01:27.481Z,17.56
2022-10-05T20:03:55.361Z,17.70
2022-10-05T20:06:22.913Z,17.64
2022-10-05T20:08:53.550Z,17.52
2022-10-05T20:11:22.612Z,17.66
2022-10-05T20:14:25.575Z,17.78
2022-10-05T20:17:58.320Z,17.68
2022-10-05T20:20:36.449Z,17.79
2022-10-05T20:23:23.281Z,17.84
2022-10-05T20:26:05.180Z,17.74
2022-10-05T20:28:33.596Z,17.77
2022-10-05T20:31:01.246Z,17.82
2022-10-05T20:33:30.597Z,17.73
2022-10-05T20:35:58.783Z,17.88
2022-10-05T20:38:26.712Z,17.89
2022-10-05T20:40:54.461Z,17.65
2022-10-05T20:43:21.921Z,17.71
2022-10-05T20:45:49.534Z,17.72
2022-10-05T20:48:17.406Z,17.82
2022-10-05T20:50:47.206Z,17.67
2022-10-05T20:53:14.681Z,17.83
2022-10-05T20:55:43.021Z,17.72
2022-10-05T20:58:11.040Z,17.66
2022-10-05T21:00:56.293Z,17.62
2022-10-05T21:03:23.814Z,17.80
2022-10-05T21:05:52.638Z,17.68
2022-10-05T21:08:20.115Z,17.77
2022-10-05T21:10:47.586Z,17.79
2022-10-05T21:13:15.056Z,17.92
2022-10-05T21:15:42.496Z,17.80
2022-10-05T21:18:09.969Z,17.89
2022-10-05T21:20:37.414Z,17.78
2022-10-05T21:23:06.278Z,17.82
2022-10-05T21:25:34.222Z,17.83
2022-10-05T21:28:02.491Z,17.85
2022-10-05T21:30:30.020Z,17.86
2022-10-05T21:32:57.494Z,17.69
2022-10-05T21:35:25.086Z,17.77
2022-10-05T21:37:52.564Z,17.57
2022-10-05T21:40:21.374Z,17.65
2022-10-05T21:42:48.843Z,17.54
2022-10-05T21:45:16.384Z,17.80
2022-10-05T21:47:43.901Z,17.54
2022-10-05T21:50:11.496Z,17.81
2022-10-05T21:52:39.109Z,17.90
2022-10-05T21:55:07.647Z,17.71
2022-10-05T21:57:36.880Z,17.70
2022-10-05T22:00:08.886Z,17.86
2022-10-05T22:02:36.342Z,17.92
2022-10-05T22:05:04.213Z,18.08
2022-10-05T22:07:32.014Z,17.76
2022-10-05T22:09:59.544Z,17.85
2022-10-05T22:12:28.101Z,18.08
2022-10-05T22:14:56.900Z,18.16
2022-10-05T22:17:27.203Z,18.15
2022-10-05T22:19:55.686Z,18.14
2022-10-05T22:22:24.353Z,17.81
2022-10-05T22:24:51.918Z,17.51
2022-10-05T22:27:19.961Z,17.35
2022-10-05T22:29:47.942Z,17.37
2022-10-05T22:32:16.802Z,17.28
2022-10-05T22:34:44.784Z,17.28
2022-10-05T22:37:13.953Z,17.22
2022-10-05T22:39:41.601Z,17.18
2022-10-05T22:42:09.485Z,17.04
2022-10-05T22:44:36.965Z,17.04
2022-10-05T22:47:05.083Z,16.91
2022-10-05T22:49:33.924Z,16.77
2022-10-05T22:52:01.373Z,16.77
2022-10-05T22:54:30.102Z,16.94
2022-10-05T22:56:59.273Z,17.03
2022-10-05T22:59:26.714Z,16.72
2022-10-05T23:01:54.403Z,16.75
2022-10-05T23:04:22.030Z,16.61
2022-10-05T23:06:50.989Z,16.59
2022-10-05T23:09:18.722Z,16.45
2022-10-05T23:11:51.801Z,16.36
2022-10-05T23:14:19.560Z,16.56
2022-10-05T23:16:47.937Z,16.42
2022-10-05T23:19:15.484Z,16.51
2022-10-05T23:21:43.329Z,16.32
2022-10-05T23:24:12.116Z,16.34
2022-10-05T23:26:39.578Z,16.37
2022-10-05T23:29:07.103Z,16.47
2022-10-05T23:31:36.476Z,16.19
2022-10-05T23:34:03.978Z,16.02
2022-10-05T23:36:32.351Z,15.71
2022-10-05T23:39:00.332Z,15.42
2022-10-05T23:41:29.832Z,15.40
2022-10-05T23:44:00.100Z,15.18
2022-10-05T23:46:27.744Z,14.96
2022-10-05T23:48:55.222Z,15.08
2022-10-05T23:51:22.803Z,15.22
2022-10-05T23:53:50.285Z,15.10
2022-10-05T23:56:17.812Z,14.88
2022-10-05T23:58:46.650Z,14.89
